createdAt,value
2019-01-13T00:00:25.327Z,5.92
2019-01-13T00:01:25.062Z,5.95
2019-01-13T00:02:25.727Z,5.90
2019-01-13T00:03:26.305Z,5.87
2019-01-13T00:04:26.044Z,5.84
2019-01-13T00:05:25.623Z,5.94
2019-01-13T00:06:26.603Z,5.95
2019-01-13T00:07:26.652Z,5.81
2019-01-13T00:08:25.636Z,5.92
2019-01-13T00:09:25.852Z,5.97
2019-01-13T00:10:25.759Z,5.97
2019-01-13T00:11:24.905Z,5.87
2019-01-13T00:12:25.318Z,5.88
2019-01-13T00:13:25.562Z,5.95
2019-01-13T00:14:25.030Z,5.94
2019-01-13T00:15:25.548Z,5.95
2019-01-13T00:16:26.553Z,5.95
2019-01-13T00:17:24.845Z,5.90
2019-01-13T00:18:25.219Z,5.87
2019-01-13T00:19:24.942Z,5.95
2019-01-13T00:20:24.874Z,5.88
2019-01-13T00:21:24.948Z,5.84
2019-01-13T00:22:25.548Z,5.81
2019-01-13T00:23:24.861Z,5.80
2019-01-13T00:24:25.194Z,5.76
2019-01-13T00:25:25.581Z,5.84
2019-01-13T00:26:26.548Z,5.84
2019-01-13T00:27:25.549Z,5.74
2019-01-13T00:28:24.818Z,5.80
2019-01-13T00:29:25.569Z,5.77
2019-01-13T00:30:25.661Z,5.79
2019-01-13T00:31:25.549Z,5.74
2019-01-13T00:32:25.576Z,5.84
2019-01-13T00:33:24.843Z,5.76
2019-01-13T00:34:24.714Z,5.76
2019-01-13T00:35:24.676Z,5.72
2019-01-13T00:36:24.656Z,5.80
2019-01-13T00:37:24.645Z,5.79
2019-01-13T00:38:24.730Z,5.77
2019-01-13T00:39:24.626Z,5.80
2019-01-13T00:40:24.700Z,5.79
2019-01-13T00:41:33.929Z,5.79
2019-01-13T00:42:33.701Z,5.79
2019-01-13T00:43:24.570Z,5.76
2019-01-13T00:44:33.765Z,5.80
2019-01-13T00:45:24.577Z,5.70
2019-01-13T00:46:33.324Z,5.80
2019-01-13T00:48:41.661Z,5.83
2019-01-13T00:50:53.917Z,5.84
2019-01-13T00:51:53.827Z,5.73
2019-01-13T00:53:05.440Z,5.80
2019-01-13T00:53:54.955Z,5.79
2019-01-13T00:54:53.858Z,5.76
2019-01-13T00:55:53.745Z,5.80
2019-01-13T00:56:53.762Z,5.80
2019-01-13T00:57:53.745Z,5.80
2019-01-13T00:58:53.731Z,5.83
2019-01-13T00:59:53.749Z,5.77
2019-01-13T01:00:53.771Z,5.73
2019-01-13T01:01:53.738Z,5.74
2019-01-13T01:02:53.779Z,5.73
2019-01-13T01:03:53.742Z,5.73
2019-01-13T01:04:53.694Z,5.72
2019-01-13T01:05:53.708Z,5.79
2019-01-13T01:06:53.631Z,5.70
2019-01-13T01:07:53.666Z,5.69
2019-01-13T01:08:53.704Z,5.77
2019-01-13T01:09:53.624Z,5.72
2019-01-13T01:10:53.622Z,5.73
2019-01-13T01:11:53.733Z,5.62
2019-01-13T01:12:53.628Z,5.69
2019-01-13T01:13:53.600Z,5.70
2019-01-13T01:14:53.611Z,5.69
2019-01-13T01:15:53.616Z,5.70
2019-01-13T01:16:53.568Z,5.72
2019-01-13T01:17:53.592Z,5.62
2019-01-13T01:19:05.355Z,5.64
2019-01-13T01:20:02.799Z,5.69
2019-01-13T01:20:53.483Z,5.65
2019-01-13T01:22:01.159Z,5.70
2019-01-13T01:23:02.832Z,5.70
2019-01-13T01:23:53.479Z,5.70
2019-01-13T01:24:53.525Z,5.72
2019-01-13T01:25:53.544Z,5.69
2019-01-13T01:26:53.657Z,5.72
2019-01-13T01:27:53.443Z,5.70
2019-01-13T01:28:53.431Z,5.72
2019-01-13T01:29:53.422Z,5.69
2019-01-13T01:30:53.395Z,5.74
2019-01-13T01:31:53.391Z,5.80
2019-01-13T01:32:53.548Z,5.76
2019-01-13T01:33:53.365Z,5.73
2019-01-13T01:34:53.373Z,5.76
2019-01-13T01:35:53.324Z,5.59
2019-01-13T01:36:54.243Z,5.73
2019-01-13T01:37:53.441Z,5.73
2019-01-13T01:38:53.298Z,5.62
2019-01-13T01:39:53.524Z,5.70
2019-01-13T01:40:53.320Z,5.70
2019-01-13T01:41:53.423Z,5.70
2019-01-13T01:42:54.143Z,5.64
2019-01-13T01:43:53.319Z,5.70
2019-01-13T01:44:53.275Z,5.67
2019-01-13T01:45:53.276Z,5.62
2019-01-13T01:46:53.255Z,5.69
2019-01-13T01:47:53.240Z,5.73
2019-01-13T01:48:53.294Z,5.69
2019-01-13T01:49:53.214Z,5.70
2019-01-13T01:50:53.196Z,5.65
2019-01-13T01:51:53.289Z,5.70
2019-01-13T01:52:53.162Z,5.69
2019-01-13T01:53:53.231Z,5.70
2019-01-13T01:54:53.206Z,5.67
2019-01-13T01:55:53.223Z,5.67
2019-01-13T01:56:53.116Z,5.65
2019-01-13T01:57:53.649Z,5.64
2019-01-13T01:58:53.140Z,5.73
2019-01-13T01:59:53.134Z,5.76
2019-01-13T02:00:53.058Z,5.73
2019-01-13T02:01:53.121Z,5.77
2019-01-13T02:02:53.057Z,5.80
2019-01-13T02:03:53.054Z,5.74
2019-01-13T02:04:53.235Z,5.77
2019-01-13T02:05:53.055Z,5.67
2019-01-13T02:06:53.000Z,5.81
2019-01-13T02:07:53.003Z,5.79
2019-01-13T02:08:53.006Z,5.80
2019-01-13T02:09:53.015Z,5.79
2019-01-13T02:10:53.037Z,5.80
2019-01-13T02:11:52.961Z,5.80
2019-01-13T02:12:52.998Z,5.77
2019-01-13T02:13:52.990Z,5.76
2019-01-13T02:14:52.925Z,5.87
2019-01-13T02:15:52.968Z,5.79
2019-01-13T02:16:53.124Z,5.80
2019-01-13T02:17:53.016Z,5.83
2019-01-13T02:18:53.139Z,5.80
2019-01-13T02:19:52.909Z,5.77
2019-01-13T02:20:52.914Z,5.84
2019-01-13T02:21:52.952Z,5.77
2019-01-13T02:22:52.941Z,5.87
2019-01-13T02:23:53.554Z,5.81
2019-01-13T02:24:53.649Z,5.80
2019-01-13T02:25:52.984Z,5.79
2019-01-13T02:26:52.926Z,5.80
2019-01-13T02:27:52.831Z,5.79
2019-01-13T02:28:52.786Z,5.83
2019-01-13T02:29:52.811Z,5.80
2019-01-13T02:30:53.053Z,5.79
2019-01-13T02:31:52.806Z,5.79
2019-01-13T02:32:52.920Z,5.80
2019-01-13T02:33:52.844Z,5.80
2019-01-13T02:34:52.722Z,5.79
2019-01-13T02:35:52.856Z,5.81
2019-01-13T02:36:52.692Z,5.74
2019-01-13T02:37:52.699Z,5.79
2019-01-13T02:38:52.767Z,5.83
2019-01-13T02:39:52.924Z,5.65
2019-01-13T02:40:52.654Z,5.74
2019-01-13T02:42:02.863Z,5.62
2019-01-13T02:43:00.957Z,5.74
2019-01-13T02:45:04.613Z,5.70
2019-01-13T02:46:03.778Z,5.73
2019-01-13T02:47:03.870Z,5.70
2019-01-13T02:48:03.790Z,5.72
2019-01-13T02:49:03.718Z,5.62
2019-01-13T02:50:03.695Z,5.62
2019-01-13T02:51:03.709Z,5.74
2019-01-13T02:52:03.686Z,5.70
2019-01-13T02:53:03.688Z,5.73
2019-01-13T02:54:03.627Z,5.61
2019-01-13T02:55:03.625Z,5.69
2019-01-13T02:56:03.658Z,5.70
2019-01-13T02:57:03.628Z,5.73
2019-01-13T02:58:03.609Z,5.65
2019-01-13T02:59:03.768Z,5.69
2019-01-13T03:00:03.609Z,5.76
2019-01-13T03:01:03.628Z,5.70
2019-01-13T03:02:03.569Z,5.62
2019-01-13T03:03:03.581Z,5.69
2019-01-13T03:04:03.631Z,5.69
2019-01-13T03:05:03.545Z,5.73
2019-01-13T03:06:03.513Z,5.69
2019-01-13T03:07:03.542Z,5.67
2019-01-13T03:08:03.560Z,5.67
2019-01-13T03:09:03.482Z,5.64
2019-01-13T03:10:12.702Z,5.62
2019-01-13T03:11:03.531Z,5.52
2019-01-13T03:12:03.468Z,5.62
2019-01-13T03:13:03.713Z,5.55
2019-01-13T03:14:04.016Z,5.55
2019-01-13T03:15:03.470Z,5.65
2019-01-13T03:16:03.421Z,5.61
2019-01-13T03:17:03.478Z,5.59
2019-01-13T03:18:03.404Z,5.47
2019-01-13T03:19:03.438Z,5.47
2019-01-13T03:20:03.423Z,5.54
2019-01-13T03:21:03.442Z,5.55
2019-01-13T03:22:03.347Z,5.54
2019-01-13T03:23:03.395Z,5.54
2019-01-13T03:24:03.352Z,5.58
2019-01-13T03:25:03.385Z,5.55
2019-01-13T03:26:03.350Z,5.58
2019-01-13T03:27:03.357Z,5.69
2019-01-13T03:28:03.345Z,5.51
2019-01-13T03:29:03.317Z,5.54
2019-01-13T03:30:03.301Z,5.62
2019-01-13T03:31:12.248Z,5.55
2019-01-13T03:32:04.245Z,5.55
2019-01-13T03:33:03.211Z,5.49
2019-01-13T03:34:03.273Z,5.56
2019-01-13T03:35:03.240Z,5.55
2019-01-13T03:36:03.193Z,5.61
2019-01-13T03:37:03.224Z,5.61
2019-01-13T03:38:03.226Z,5.56
2019-01-13T03:39:03.217Z,5.56
2019-01-13T03:40:03.205Z,5.61
2019-01-13T03:41:03.173Z,5.64
2019-01-13T03:42:03.153Z,5.61
2019-01-13T03:43:03.282Z,5.52
2019-01-13T03:44:03.190Z,5.51
2019-01-13T03:45:03.120Z,5.58
2019-01-13T03:46:12.661Z,5.55
2019-01-13T03:47:12.299Z,5.54
2019-01-13T03:48:12.204Z,5.54
2019-01-13T03:49:11.776Z,5.52
2019-01-13T03:50:12.853Z,5.55
2019-01-13T03:51:13.296Z,5.51
2019-01-13T03:53:21.140Z,5.51
2019-01-13T03:54:21.213Z,5.55
2019-01-13T03:55:21.148Z,5.56
2019-01-13T03:56:21.148Z,5.61
2019-01-13T03:57:21.113Z,5.58
2019-01-13T03:58:21.093Z,5.52
2019-01-13T03:59:21.080Z,5.61
2019-01-13T04:00:21.052Z,5.52
2019-01-13T04:01:21.091Z,5.44
2019-01-13T04:02:21.066Z,5.56
2019-01-13T04:03:21.021Z,5.46
2019-01-13T04:04:21.099Z,5.54
2019-01-13T04:05:21.017Z,5.51
2019-01-13T04:06:21.077Z,5.55
2019-01-13T04:07:21.047Z,5.49
2019-01-13T04:08:20.976Z,5.49
2019-01-13T04:09:30.662Z,5.51
2019-01-13T04:10:20.953Z,5.43
2019-01-13T04:11:20.995Z,5.47
2019-01-13T04:12:21.003Z,5.56
2019-01-13T04:13:22.384Z,5.56
2019-01-13T04:14:20.901Z,5.52
2019-01-13T04:15:20.906Z,5.59
2019-01-13T04:16:20.896Z,5.51
2019-01-13T04:17:20.879Z,5.47
2019-01-13T04:18:20.966Z,5.55
2019-01-13T04:19:20.899Z,5.61
2019-01-13T04:20:20.846Z,5.56
2019-01-13T04:21:20.853Z,5.58
2019-01-13T04:22:20.817Z,5.54
2019-01-13T04:23:21.302Z,5.67
2019-01-13T04:24:20.807Z,5.56
2019-01-13T04:25:20.959Z,5.51
2019-01-13T04:26:21.675Z,5.46
2019-01-13T04:27:20.785Z,5.49
2019-01-13T04:28:21.214Z,5.58
2019-01-13T04:29:20.762Z,5.54
2019-01-13T04:30:20.815Z,5.49
2019-01-13T04:31:26.607Z,5.52
2019-01-13T04:32:21.755Z,5.46
2019-01-13T04:33:20.821Z,5.49
2019-01-13T04:34:20.680Z,5.56
2019-01-13T04:35:20.713Z,5.51
2019-01-13T04:36:20.824Z,5.54
2019-01-13T04:37:20.755Z,5.61
2019-01-13T04:38:20.697Z,5.55
2019-01-13T04:39:20.673Z,5.52
2019-01-13T04:40:20.640Z,5.55
2019-01-13T04:41:20.676Z,5.55
2019-01-13T04:42:20.657Z,5.49
2019-01-13T04:43:20.621Z,5.51
2019-01-13T04:44:20.676Z,5.54
2019-01-13T04:45:20.602Z,5.55
2019-01-13T04:46:20.549Z,5.52
2019-01-13T04:47:20.556Z,5.65
2019-01-13T04:48:20.533Z,5.49
2019-01-13T04:49:20.576Z,5.69
2019-01-13T04:50:20.620Z,5.52
2019-01-13T04:51:20.512Z,5.51
2019-01-13T04:52:20.521Z,5.52
2019-01-13T04:53:20.558Z,5.59
2019-01-13T04:54:20.488Z,5.58
2019-01-13T04:55:20.453Z,5.54
2019-01-13T04:56:20.533Z,5.56
2019-01-13T04:57:20.493Z,5.64
2019-01-13T04:58:20.491Z,5.59
2019-01-13T04:59:20.420Z,5.55
2019-01-13T05:00:20.406Z,5.62
2019-01-13T05:01:20.490Z,5.55
2019-01-13T05:02:20.462Z,5.56
2019-01-13T05:03:20.394Z,5.64
2019-01-13T05:04:20.373Z,5.56
2019-01-13T05:05:20.381Z,5.67
2019-01-13T05:06:21.398Z,5.56
2019-01-13T05:07:20.432Z,5.56
2019-01-13T05:08:20.388Z,5.58
2019-01-13T05:09:20.369Z,5.56
2019-01-13T05:10:20.316Z,5.67
2019-01-13T05:11:20.385Z,5.61
2019-01-13T05:12:20.310Z,5.61
2019-01-13T05:13:20.371Z,5.62
2019-01-13T05:14:20.467Z,5.62
2019-01-13T05:15:20.262Z,5.59
2019-01-13T05:16:20.273Z,5.61
2019-01-13T05:17:20.255Z,5.58
2019-01-13T05:18:20.315Z,5.59
2019-01-13T05:19:20.247Z,5.56
2019-01-13T05:20:20.233Z,5.62
2019-01-13T05:21:20.261Z,5.70
2019-01-13T05:22:20.218Z,5.65
2019-01-13T05:23:20.208Z,5.65
2019-01-13T05:24:20.249Z,5.58
2019-01-13T05:25:20.267Z,5.65
2019-01-13T05:26:20.173Z,5.64
2019-01-13T05:27:20.152Z,5.58
2019-01-13T05:28:20.194Z,5.61
2019-01-13T05:29:20.155Z,5.59
2019-01-13T05:30:20.370Z,5.62
2019-01-13T05:31:20.292Z,5.59
2019-01-13T05:32:20.093Z,5.55
2019-01-13T05:33:20.093Z,5.56
2019-01-13T05:34:20.146Z,5.58
2019-01-13T05:35:20.100Z,5.56
2019-01-13T05:36:20.022Z,5.59
2019-01-13T05:37:20.046Z,5.62
2019-01-13T05:38:20.062Z,5.67
2019-01-13T05:39:19.997Z,5.61
2019-01-13T05:40:19.995Z,5.61
2019-01-13T05:41:19.963Z,5.61
2019-01-13T05:42:19.987Z,5.59
2019-01-13T05:43:19.961Z,5.59
2019-01-13T05:44:19.972Z,5.67
2019-01-13T05:45:19.936Z,5.52
2019-01-13T05:46:19.966Z,5.55
2019-01-13T05:47:19.936Z,5.67
2019-01-13T05:48:19.905Z,5.56
2019-01-13T05:49:19.887Z,5.59
2019-01-13T05:50:19.904Z,5.64
2019-01-13T05:51:29.540Z,5.61
2019-01-13T05:52:30.635Z,5.59
2019-01-13T05:53:20.375Z,5.58
2019-01-13T05:54:20.045Z,5.58
2019-01-13T05:55:20.449Z,5.65
2019-01-13T05:56:19.826Z,5.56
2019-01-13T05:57:19.833Z,5.64
2019-01-13T05:58:19.805Z,5.58
2019-01-13T05:59:19.873Z,5.70
2019-01-13T06:00:19.792Z,5.61
2019-01-13T06:01:19.901Z,5.55
2019-01-13T06:02:19.787Z,5.55
2019-01-13T06:03:19.754Z,5.55
2019-01-13T06:04:20.437Z,5.52
2019-01-13T06:05:19.727Z,5.49
2019-01-13T06:06:19.720Z,5.47
2019-01-13T06:07:19.722Z,5.52
2019-01-13T06:08:19.742Z,5.64
2019-01-13T06:09:19.838Z,5.55
2019-01-13T06:10:19.686Z,5.58
2019-01-13T06:11:19.777Z,5.61
2019-01-13T06:12:25.167Z,5.51
2019-01-13T06:13:20.443Z,5.55
2019-01-13T06:14:19.676Z,5.55
2019-01-13T06:15:19.667Z,5.58
2019-01-13T06:16:19.643Z,5.58
2019-01-13T06:17:19.611Z,5.59
2019-01-13T06:18:19.604Z,5.61
2019-01-13T06:19:19.638Z,5.56
2019-01-13T06:20:19.626Z,5.52
2019-01-13T06:21:19.569Z,5.55
2019-01-13T06:22:19.573Z,5.54
2019-01-13T06:23:19.645Z,5.56
2019-01-13T06:24:19.541Z,5.59
2019-01-13T06:25:19.553Z,5.56
2019-01-13T06:26:19.591Z,5.56
2019-01-13T06:27:19.502Z,5.69
2019-01-13T06:28:19.473Z,5.64
2019-01-13T06:29:19.490Z,5.62
2019-01-13T06:30:19.553Z,5.65
2019-01-13T06:31:19.523Z,5.69
2019-01-13T06:32:19.581Z,5.62
2019-01-13T06:33:20.453Z,5.59
2019-01-13T06:34:19.967Z,5.65
2019-01-13T06:35:19.426Z,5.69
2019-01-13T06:36:19.398Z,5.70
2019-01-13T06:37:20.276Z,5.72
2019-01-13T06:38:19.554Z,5.62
2019-01-13T06:39:19.384Z,5.65
2019-01-13T06:40:19.428Z,5.70
2019-01-13T06:41:19.347Z,5.69
2019-01-13T06:42:19.370Z,5.70
2019-01-13T06:43:19.374Z,5.69
2019-01-13T06:44:19.333Z,5.69
2019-01-13T06:45:19.404Z,5.70
2019-01-13T06:46:19.317Z,5.72
2019-01-13T06:47:19.288Z,5.83
2019-01-13T06:48:19.279Z,5.76
2019-01-13T06:49:19.267Z,5.62
2019-01-13T06:50:19.259Z,5.83
2019-01-13T06:51:19.268Z,5.73
2019-01-13T06:52:19.259Z,5.77
2019-01-13T06:53:19.222Z,5.77
2019-01-13T06:54:19.215Z,5.76
2019-01-13T06:55:19.185Z,5.77
2019-01-13T06:56:19.946Z,5.80
2019-01-13T06:57:19.173Z,5.81
2019-01-13T06:58:19.184Z,5.80
2019-01-13T06:59:19.166Z,5.80
2019-01-13T07:00:19.143Z,5.72
2019-01-13T07:01:19.170Z,5.79
2019-01-13T07:02:19.118Z,5.79
2019-01-13T07:03:19.119Z,5.79
2019-01-13T07:04:19.126Z,5.79
2019-01-13T07:05:19.141Z,5.79
2019-01-13T07:06:19.127Z,5.80
2019-01-13T07:07:19.102Z,5.91
2019-01-13T07:08:19.106Z,5.87
2019-01-13T07:09:19.108Z,5.95
2019-01-13T07:10:19.137Z,5.94
2019-01-13T07:11:19.019Z,5.90
2019-01-13T07:12:19.052Z,5.95
2019-01-13T07:13:19.008Z,5.92
2019-01-13T07:14:19.014Z,5.97
2019-01-13T07:15:19.002Z,6.01
2019-01-13T07:16:19.001Z,5.91
2019-01-13T07:17:18.963Z,5.95
2019-01-13T07:18:18.938Z,5.91
2019-01-13T07:19:18.997Z,5.97
2019-01-13T07:20:18.981Z,5.91
2019-01-13T07:21:19.010Z,5.98
2019-01-13T07:22:18.925Z,5.91
2019-01-13T07:23:18.912Z,5.87
2019-01-13T07:24:18.927Z,5.92
2019-01-13T07:25:18.920Z,5.87
2019-01-13T07:26:18.919Z,5.95
2019-01-13T07:27:18.889Z,5.95
2019-01-13T07:28:18.853Z,6.02
2019-01-13T07:29:18.952Z,6.01
2019-01-13T07:31:36.272Z,6.01
2019-01-13T07:32:36.298Z,6.01
2019-01-13T07:33:36.191Z,6.07
2019-01-13T07:34:36.794Z,6.06
2019-01-13T07:35:45.998Z,6.02
2019-01-13T07:36:36.972Z,6.06
2019-01-13T07:37:36.177Z,6.07
2019-01-13T07:38:36.164Z,5.99
2019-01-13T07:39:48.525Z,6.06
2019-01-13T07:40:45.344Z,6.07
2019-01-13T07:41:36.421Z,5.99
2019-01-13T07:42:36.095Z,5.94
2019-01-13T07:43:36.387Z,5.87
2019-01-13T07:44:36.229Z,5.94
2019-01-13T07:45:36.233Z,5.88
2019-01-13T07:46:36.129Z,5.97
2019-01-13T07:47:36.441Z,5.98
2019-01-13T07:48:36.162Z,5.90
2019-01-13T07:49:36.050Z,5.95
2019-01-13T07:51:56.574Z,5.98
2019-01-13T07:53:06.711Z,5.92
2019-01-13T07:53:56.551Z,5.97
2019-01-13T07:54:56.317Z,6.01
2019-01-13T07:55:56.621Z,6.02
2019-01-13T07:56:56.453Z,5.98
2019-01-13T07:57:56.258Z,6.05
2019-01-13T07:58:56.247Z,6.02
2019-01-13T07:59:56.274Z,6.13
2019-01-13T08:00:56.255Z,6.13
2019-01-13T08:01:56.399Z,6.15
2019-01-13T08:02:56.269Z,6.16
2019-01-13T08:03:56.261Z,6.20
2019-01-13T08:04:56.308Z,6.12
2019-01-13T08:05:56.219Z,6.16
2019-01-13T08:06:56.200Z,6.16
2019-01-13T08:07:56.219Z,6.16
2019-01-13T08:08:56.176Z,6.20
2019-01-13T08:09:56.230Z,6.20
2019-01-13T08:10:56.214Z,6.22
2019-01-13T08:11:56.194Z,6.26
2019-01-13T08:12:56.082Z,6.28
2019-01-13T08:13:56.119Z,6.26
2019-01-13T08:14:56.113Z,6.29
2019-01-13T08:15:56.116Z,6.25
2019-01-13T08:16:56.100Z,6.29
2019-01-13T08:17:56.088Z,6.31
2019-01-13T08:18:56.140Z,6.28
2019-01-13T08:19:56.014Z,6.31
2019-01-13T08:20:56.019Z,6.35
2019-01-13T08:21:56.073Z,6.34
2019-01-13T08:22:56.081Z,6.34
2019-01-13T08:23:55.959Z,6.41
2019-01-13T08:24:56.053Z,6.46
2019-01-13T08:25:55.949Z,6.46
2019-01-13T08:26:56.014Z,6.49
2019-01-13T08:27:55.985Z,6.41
2019-01-13T08:28:55.975Z,6.50
2019-01-13T08:29:55.929Z,6.53
2019-01-13T08:30:55.968Z,6.54
2019-01-13T08:31:58.094Z,6.62
2019-01-13T08:32:57.103Z,6.56
2019-01-13T08:33:57.611Z,6.62
2019-01-13T08:34:58.464Z,6.57
2019-01-13T08:35:55.890Z,6.60
2019-01-13T08:36:55.904Z,6.59
2019-01-13T08:37:55.907Z,6.56
2019-01-13T08:38:55.991Z,6.54
2019-01-13T08:39:55.913Z,6.57
2019-01-13T08:40:55.805Z,6.59
2019-01-13T08:41:56.262Z,6.56
2019-01-13T08:42:56.718Z,6.53
2019-01-13T08:43:55.806Z,6.50
2019-01-13T08:44:55.760Z,6.46
2019-01-13T08:45:55.740Z,6.49
2019-01-13T08:46:55.806Z,6.53
2019-01-13T08:47:55.715Z,6.46
2019-01-13T08:48:55.759Z,6.38
2019-01-13T08:49:55.712Z,6.47
2019-01-13T08:50:55.719Z,6.50
2019-01-13T08:51:55.765Z,6.50
2019-01-13T08:52:55.673Z,6.56
2019-01-13T08:53:56.220Z,6.52
2019-01-13T08:56:13.154Z,6.54
2019-01-13T08:57:14.592Z,6.54
2019-01-13T08:58:13.084Z,6.54
2019-01-13T08:59:13.064Z,6.49
2019-01-13T09:00:13.025Z,6.57
2019-01-13T09:01:13.006Z,6.59
2019-01-13T09:02:13.044Z,6.54
2019-01-13T09:03:13.050Z,6.62
2019-01-13T09:04:13.177Z,6.65
2019-01-13T09:05:12.995Z,6.64
2019-01-13T09:06:13.026Z,6.67
2019-01-13T09:07:12.951Z,6.60
2019-01-13T09:08:12.942Z,6.67
2019-01-13T09:09:12.942Z,6.64
2019-01-13T09:10:12.920Z,6.59
2019-01-13T09:11:12.899Z,6.54
2019-01-13T09:12:12.914Z,6.50
2019-01-13T09:13:12.933Z,6.57
2019-01-13T09:14:12.871Z,6.57
2019-01-13T09:15:12.905Z,6.64
2019-01-13T09:16:13.301Z,6.54
2019-01-13T09:17:12.949Z,6.60
2019-01-13T09:18:12.945Z,6.54
2019-01-13T09:19:12.855Z,6.56
2019-01-13T09:20:13.178Z,6.50
2019-01-13T09:21:14.028Z,6.53
2019-01-13T09:22:12.931Z,6.52
2019-01-13T09:23:12.852Z,6.50
2019-01-13T09:24:13.279Z,6.53
2019-01-13T09:25:12.843Z,6.36
2019-01-13T09:26:12.823Z,6.35
2019-01-13T09:27:13.045Z,6.52
2019-01-13T09:28:12.819Z,6.39
2019-01-13T09:29:14.298Z,6.43
2019-01-13T09:30:13.309Z,6.46
2019-01-13T09:31:13.915Z,6.43
2019-01-13T09:32:13.807Z,6.43
2019-01-13T09:33:12.759Z,6.36
2019-01-13T09:34:13.699Z,6.36
2019-01-13T09:35:12.717Z,6.31
2019-01-13T09:36:12.771Z,6.31
2019-01-13T09:37:12.682Z,6.38
2019-01-13T09:38:12.725Z,6.35
2019-01-13T09:39:12.654Z,6.34
2019-01-13T09:40:12.943Z,6.32
2019-01-13T09:41:12.733Z,6.31
2019-01-13T09:42:14.283Z,6.34
2019-01-13T09:43:12.754Z,6.35
2019-01-13T09:44:12.540Z,6.25
2019-01-13T09:45:12.737Z,6.34
2019-01-13T09:46:12.621Z,6.34
2019-01-13T09:47:12.956Z,6.34
2019-01-13T09:48:12.867Z,6.39
2019-01-13T09:49:12.558Z,6.34
2019-01-13T09:50:14.307Z,6.34
2019-01-13T09:51:12.568Z,6.31
2019-01-13T09:52:12.513Z,6.38
2019-01-13T09:53:12.488Z,6.36
2019-01-13T09:54:12.494Z,6.29
2019-01-13T09:55:12.581Z,6.38
2019-01-13T09:56:12.497Z,6.35
2019-01-13T09:57:12.502Z,6.38
2019-01-13T09:58:12.494Z,6.39
2019-01-13T09:59:12.403Z,6.38
2019-01-13T10:00:12.680Z,6.38
2019-01-13T10:01:12.581Z,6.38
2019-01-13T10:02:12.442Z,6.41
2019-01-13T10:03:12.364Z,6.50
2019-01-13T10:04:12.354Z,6.39
2019-01-13T10:05:12.394Z,6.36
2019-01-13T10:06:12.354Z,6.49
2019-01-13T10:07:12.402Z,6.43
2019-01-13T10:08:12.416Z,6.39
2019-01-13T10:09:12.334Z,6.36
2019-01-13T10:10:12.313Z,6.36
2019-01-13T10:11:12.311Z,6.35
2019-01-13T10:12:12.274Z,6.36
2019-01-13T10:13:12.356Z,6.43
2019-01-13T10:14:12.592Z,6.43
2019-01-13T10:15:13.815Z,6.39
2019-01-13T10:16:12.286Z,6.52
2019-01-13T10:17:12.200Z,6.43
2019-01-13T10:18:12.234Z,6.39
2019-01-13T10:19:12.811Z,6.43
2019-01-13T10:20:12.201Z,6.39
2019-01-13T10:21:12.166Z,6.39
2019-01-13T10:22:12.189Z,6.39
2019-01-13T10:23:12.311Z,6.36
2019-01-13T10:24:12.356Z,6.39
2019-01-13T10:25:12.234Z,6.46
2019-01-13T10:26:12.217Z,6.43
2019-01-13T10:27:12.162Z,6.39
2019-01-13T10:28:12.175Z,6.43
2019-01-13T10:29:12.133Z,6.43
2019-01-13T10:30:12.171Z,6.43
2019-01-13T10:31:12.074Z,6.36
2019-01-13T10:32:12.065Z,6.52
2019-01-13T10:33:12.034Z,6.59
2019-01-13T10:34:12.261Z,6.60
2019-01-13T10:35:12.812Z,6.44
2019-01-13T10:36:12.069Z,6.47
2019-01-13T10:37:12.087Z,6.64
2019-01-13T10:38:22.466Z,6.50
2019-01-13T10:39:12.033Z,6.54
2019-01-13T10:40:11.956Z,6.50
2019-01-13T10:41:12.146Z,6.52
2019-01-13T10:42:12.279Z,6.54
2019-01-13T10:43:11.952Z,6.41
2019-01-13T10:44:11.915Z,6.53
2019-01-13T10:45:12.088Z,6.50
2019-01-13T10:46:11.979Z,6.49
2019-01-13T10:47:11.957Z,6.52
2019-01-13T10:48:12.084Z,6.52
2019-01-13T10:49:11.918Z,6.49
2019-01-13T10:50:11.881Z,6.52
2019-01-13T10:51:12.673Z,6.52
2019-01-13T10:52:11.864Z,6.52
2019-01-13T10:53:11.832Z,6.52
2019-01-13T10:54:11.890Z,6.50
2019-01-13T10:55:11.848Z,6.52
2019-01-13T10:56:11.822Z,6.52
2019-01-13T10:57:11.846Z,6.50
2019-01-13T10:58:11.798Z,6.47
2019-01-13T10:59:11.793Z,6.38
2019-01-13T11:00:11.779Z,6.52
2019-01-13T11:01:11.760Z,6.46
2019-01-13T11:02:11.763Z,6.53
2019-01-13T11:03:11.746Z,6.46
2019-01-13T11:04:11.755Z,6.50
2019-01-13T11:05:12.240Z,6.43
2019-01-13T11:06:11.784Z,6.46
2019-01-13T11:07:11.719Z,6.43
2019-01-13T11:08:11.973Z,6.38
2019-01-13T11:09:11.633Z,6.35
2019-01-13T11:10:11.866Z,6.53
2019-01-13T11:11:11.652Z,6.53
2019-01-13T11:12:11.646Z,6.38
2019-01-13T11:13:11.850Z,6.44
2019-01-13T11:14:11.625Z,6.50
2019-01-13T11:15:11.664Z,6.53
2019-01-13T11:16:11.662Z,6.54
2019-01-13T11:17:11.813Z,6.52
2019-01-13T11:18:11.644Z,6.50
2019-01-13T11:19:11.613Z,6.62
2019-01-13T11:20:11.614Z,6.64
2019-01-13T11:21:11.584Z,6.54
2019-01-13T11:22:11.568Z,6.53
2019-01-13T11:23:11.546Z,6.56
2019-01-13T11:24:11.644Z,6.53
2019-01-13T11:25:11.506Z,6.49
2019-01-13T11:26:13.966Z,6.46
2019-01-13T11:27:11.471Z,6.50
2019-01-13T11:28:11.555Z,6.56
2019-01-13T11:29:11.635Z,6.47
2019-01-13T11:30:11.987Z,6.47
2019-01-13T11:31:11.480Z,6.50
2019-01-13T11:32:11.487Z,6.38
2019-01-13T11:33:11.458Z,6.43
2019-01-13T11:34:11.413Z,6.36
2019-01-13T11:35:11.501Z,6.35
2019-01-13T11:36:11.403Z,6.39
2019-01-13T11:37:11.803Z,6.36
2019-01-13T11:38:11.390Z,6.52
2019-01-13T11:39:11.357Z,6.44
2019-01-13T11:40:11.342Z,6.36
2019-01-13T11:41:11.351Z,6.36
2019-01-13T11:42:11.318Z,6.36
2019-01-13T11:43:11.407Z,6.34
2019-01-13T11:44:11.327Z,6.44
2019-01-13T11:45:11.290Z,6.38
2019-01-13T11:46:11.327Z,6.35
2019-01-13T11:47:11.267Z,6.39
2019-01-13T11:48:11.344Z,6.43
2019-01-13T11:49:11.256Z,6.39
2019-01-13T11:50:11.281Z,6.39
2019-01-13T11:51:11.307Z,6.44
2019-01-13T11:52:11.210Z,6.39
2019-01-13T11:53:11.188Z,6.46
2019-01-13T11:54:11.199Z,6.43
2019-01-13T11:55:11.172Z,6.50
2019-01-13T11:56:11.191Z,6.36
2019-01-13T11:57:21.467Z,6.34
2019-01-13T11:58:11.442Z,6.38
2019-01-13T12:00:30.324Z,6.41
2019-01-13T12:01:30.295Z,6.39
2019-01-13T12:02:32.728Z,6.35
2019-01-13T12:03:41.463Z,6.22
2019-01-13T12:04:31.297Z,6.31
2019-01-13T12:05:29.726Z,6.22
2019-01-13T12:06:29.837Z,6.29
2019-01-13T12:07:29.714Z,6.28
2019-01-13T12:08:29.661Z,6.26
2019-01-13T12:09:29.814Z,6.19
2019-01-13T12:10:29.673Z,6.25
2019-01-13T12:11:29.819Z,6.25
2019-01-13T12:12:29.707Z,6.28
2019-01-13T12:13:29.688Z,6.26
2019-01-13T12:14:29.849Z,6.26
2019-01-13T12:15:29.645Z,6.26
2019-01-13T12:16:29.573Z,6.29
2019-01-13T12:17:29.655Z,6.29
2019-01-13T12:18:29.553Z,6.29
2019-01-13T12:19:29.557Z,6.31
2019-01-13T12:20:30.299Z,6.25
2019-01-13T12:21:29.521Z,6.25
2019-01-13T12:22:29.551Z,6.28
2019-01-13T12:23:29.514Z,6.28
2019-01-13T12:24:29.471Z,6.25
2019-01-13T12:25:30.298Z,6.25
2019-01-13T12:26:29.484Z,6.29
2019-01-13T12:27:29.669Z,6.25
2019-01-13T12:28:29.469Z,6.17
2019-01-13T12:29:30.828Z,6.29
2019-01-13T12:30:29.534Z,6.19
2019-01-13T12:31:29.403Z,6.20
2019-01-13T12:32:29.456Z,6.29
2019-01-13T12:33:29.419Z,6.26
2019-01-13T12:34:29.433Z,6.19
2019-01-13T12:35:29.663Z,6.28
2019-01-13T12:36:29.429Z,6.31
2019-01-13T12:37:29.473Z,6.29
2019-01-13T12:38:29.392Z,6.22
2019-01-13T12:39:29.370Z,6.29
2019-01-13T12:40:31.699Z,6.35
2019-01-13T12:41:29.399Z,6.34
2019-01-13T12:42:29.359Z,6.28
2019-01-13T12:43:29.551Z,6.28
2019-01-13T12:44:29.301Z,6.38
2019-01-13T12:45:29.335Z,6.36
2019-01-13T12:46:29.277Z,6.32
2019-01-13T12:47:29.268Z,6.28
2019-01-13T12:48:29.302Z,6.35
2019-01-13T12:49:30.597Z,6.22
2019-01-13T12:50:29.293Z,6.25
2019-01-13T12:51:29.230Z,6.25
2019-01-13T12:52:29.243Z,6.26
2019-01-13T12:53:29.315Z,6.32
2019-01-13T12:54:29.170Z,6.26
2019-01-13T12:55:29.243Z,6.28
2019-01-13T12:56:29.182Z,6.28
2019-01-13T12:57:29.803Z,6.22
2019-01-13T12:58:29.246Z,6.22
2019-01-13T12:59:29.132Z,6.28
2019-01-13T13:00:29.180Z,6.26
2019-01-13T13:01:29.432Z,6.28
2019-01-13T13:02:29.291Z,6.28
2019-01-13T13:03:31.881Z,6.28
2019-01-13T13:04:29.368Z,6.22
2019-01-13T13:05:29.237Z,6.28
2019-01-13T13:06:29.207Z,6.25
2019-01-13T13:07:29.997Z,6.32
2019-01-13T13:08:29.431Z,6.34
2019-01-13T13:09:29.054Z,6.31
2019-01-13T13:10:29.020Z,6.36
2019-01-13T13:11:29.052Z,6.38
2019-01-13T13:12:29.039Z,6.36
2019-01-13T13:13:28.997Z,6.36
2019-01-13T13:14:29.446Z,6.36
2019-01-13T13:15:29.055Z,6.46
2019-01-13T13:16:29.058Z,6.50
2019-01-13T13:17:29.078Z,6.50
2019-01-13T13:18:28.960Z,6.38
2019-01-13T13:19:28.984Z,6.49
2019-01-13T13:20:28.924Z,6.43
2019-01-13T13:21:28.880Z,6.44
2019-01-13T13:22:28.923Z,6.34
2019-01-13T13:23:28.909Z,6.52
2019-01-13T13:24:28.846Z,6.41
2019-01-13T13:25:31.948Z,6.39
2019-01-13T13:26:28.823Z,6.38
2019-01-13T13:27:28.837Z,6.53
2019-01-13T13:28:28.846Z,6.36